createdAt,value
2019-05-14T00:01:12.631Z,101109.88
2019-05-14T00:03:44.164Z,101112.43
2019-05-14T00:06:15.508Z,101113.52
2019-05-14T00:08:46.964Z,101117.95
2019-05-14T00:11:19.369Z,101121.78
2019-05-14T00:13:52.005Z,101122.48
2019-05-14T00:16:24.389Z,101127.55
2019-05-14T00:18:55.961Z,101133.72
2019-05-14T00:21:27.345Z,101127.58
2019-05-14T00:23:58.741Z,101123.34
2019-05-14T00:26:31.819Z,101122.27
2019-05-14T00:29:03.290Z,101119.74
2019-05-14T00:31:34.701Z,101117.95
2019-05-14T00:34:07.305Z,101120.29
2019-05-14T00:36:38.740Z,101119.25
2019-05-14T00:39:11.218Z,101124.12
2019-05-14T00:41:42.833Z,101118.81
2019-05-14T00:44:14.205Z,101119.09
2019-05-14T00:46:45.719Z,101119.64
2019-05-14T00:49:17.274Z,101114.31
2019-05-14T00:51:48.625Z,101109.08
2019-05-14T00:54:21.540Z,101114.91
2019-05-14T00:56:53.075Z,101112.91
2019-05-14T00:59:24.485Z,101108.09
2019-05-14T01:01:56.045Z,101110.91
2019-05-14T01:04:27.393Z,101116.22
2019-05-14T01:06:58.754Z,101110.71
2019-05-14T01:09:31.440Z,101110.33
2019-05-14T01:12:02.877Z,101115.27
2019-05-14T01:14:34.296Z,101117.43
2019-05-14T01:17:05.808Z,101120.91
2019-05-14T01:19:37.231Z,101112.09
2019-05-14T01:22:08.568Z,101118.05
2019-05-14T01:24:41.626Z,101113.39
2019-05-14T01:27:13.224Z,101117.50
2019-05-14T01:29:44.615Z,101125.25
2019-05-14T01:32:16.212Z,101124.60
2019-05-14T01:34:47.736Z,101124.50
2019-05-14T01:37:21.690Z,101122.25
2019-05-14T01:39:53.492Z,101117.16
2019-05-14T01:42:24.820Z,101126.46
2019-05-14T01:44:56.500Z,101116.78
2019-05-14T01:47:31.749Z,101122.45
2019-05-14T01:50:03.044Z,101122.77
2019-05-14T01:52:35.730Z,101124.55
2019-05-14T01:55:07.778Z,101128.20
2019-05-14T01:57:39.302Z,101124.50
2019-05-14T02:00:11.841Z,101127.41
2019-05-14T02:02:43.190Z,101129.59
2019-05-14T02:05:14.585Z,101134.48
2019-05-14T02:07:45.961Z,101128.61
2019-05-14T02:10:17.762Z,101125.39
2019-05-14T02:12:51.361Z,101122.27
2019-05-14T02:15:35.285Z,101123.70
2019-05-14T02:17:55.542Z,101125.37
2019-05-14T02:20:28.043Z,101123.99
2019-05-14T02:23:01.828Z,101125.95
2019-05-14T02:25:33.279Z,101125.09
2019-05-14T02:28:05.894Z,101120.25
2019-05-14T02:30:48.061Z,101116.58
2019-05-14T02:33:10.315Z,101111.81
2019-05-14T02:35:41.750Z,101116.72
2019-05-14T02:38:13.144Z,101115.21
2019-05-14T02:40:44.566Z,101116.25
2019-05-14T02:43:19.622Z,101112.29
2019-05-14T02:46:02.175Z,101107.50
2019-05-14T02:48:22.834Z,101103.52
2019-05-14T02:50:54.189Z,101103.66
2019-05-14T02:53:25.740Z,101110.25
2019-05-14T02:55:59.238Z,101104.95
2019-05-14T02:58:31.353Z,101111.19
2019-05-14T03:01:02.786Z,101104.80
2019-05-14T03:03:34.263Z,101104.08
2019-05-14T03:06:05.679Z,101099.09
2019-05-14T03:08:38.990Z,101091.09
2019-05-14T03:11:10.306Z,101095.21
2019-05-14T03:13:41.641Z,101090.66
2019-05-14T03:16:29.069Z,101095.89
2019-05-14T03:18:46.186Z,101085.47
2019-05-14T03:21:19.807Z,101097.87
2019-05-14T03:23:52.864Z,101099.92
2019-05-14T03:26:24.244Z,101089.94
2019-05-14T03:28:55.847Z,101095.64
2019-05-14T03:31:32.228Z,101093.28
2019-05-14T03:34:02.797Z,101086.50
2019-05-14T03:36:35.517Z,101082.62
2019-05-14T03:39:10.573Z,101088.09
2019-05-14T03:41:40.662Z,101092.86
2019-05-14T03:44:12.150Z,101095.09
2019-05-14T03:46:54.369Z,101090.79
2019-05-14T03:49:19.861Z,101099.37
2019-05-14T03:51:50.837Z,101093.12
2019-05-14T03:54:22.217Z,101096.86
2019-05-14T03:56:53.657Z,101094.72
2019-05-14T03:59:25.337Z,101089.47
2019-05-14T04:01:59.674Z,101091.34
2019-05-14T04:04:32.016Z,101096.98
2019-05-14T04:07:04.413Z,101098.83
2019-05-14T04:09:35.963Z,101105.02
2019-05-14T04:12:09.955Z,101107.58
2019-05-14T04:14:45.692Z,101110.59
2019-05-14T04:17:36.172Z,101106.59
2019-05-14T04:19:59.947Z,101109.17
2019-05-14T04:22:33.765Z,101106.23
2019-05-14T04:25:10.974Z,101105.06
2019-05-14T04:27:40.856Z,101100.27
2019-05-14T04:30:12.584Z,101110.11
2019-05-14T04:32:44.029Z,101106.56
2019-05-14T04:35:19.923Z,101100.44
2019-05-14T04:37:49.560Z,101108.63
2019-05-14T04:40:21.467Z,101100.28
2019-05-14T04:42:52.956Z,101098.34
2019-05-14T04:45:29.393Z,101101.24
2019-05-14T04:48:00.365Z,101106.23
2019-05-14T04:50:31.995Z,101109.08
2019-05-14T04:53:03.482Z,101106.58
2019-05-14T04:55:39.945Z,101098.76
2019-05-14T04:58:10.366Z,101099.86
2019-05-14T05:00:49.970Z,101111.41
2019-05-14T05:03:20.599Z,101103.83
2019-05-14T05:05:52.008Z,101104.02
2019-05-14T05:08:23.388Z,101108.93
2019-05-14T05:10:54.816Z,101105.35
2019-05-14T05:13:28.939Z,101096.84
2019-05-14T05:16:00.325Z,101091.52
2019-05-14T05:18:31.739Z,101098.18
2019-05-14T05:21:03.113Z,101094.27
2019-05-14T05:23:34.659Z,101101.77
2019-05-14T05:26:06.068Z,101104.73
2019-05-14T05:28:39.086Z,101108.59
2019-05-14T05:31:10.822Z,101105.31
2019-05-14T05:33:42.329Z,101101.73
2019-05-14T05:36:13.831Z,101108.42
2019-05-14T05:38:45.334Z,101109.45
2019-05-14T05:41:18.904Z,101112.85
2019-05-14T05:43:50.960Z,101107.13
2019-05-14T05:46:22.273Z,101107.11
2019-05-14T05:48:53.787Z,101110.27
2019-05-14T05:51:28.677Z,101110.89
2019-05-14T05:53:59.375Z,101108.76
2019-05-14T05:56:30.785Z,101105.48
2019-05-14T05:59:02.146Z,101110.96
2019-05-14T06:01:42.948Z,101111.39
2019-05-14T06:04:08.734Z,101116.69
2019-05-14T06:06:40.098Z,101110.73
2019-05-14T06:09:11.448Z,101112.44
2019-05-14T06:11:42.846Z,101107.38
2019-05-14T06:14:15.254Z,101113.23
2019-05-14T06:16:48.679Z,101111.16
2019-05-14T06:19:19.946Z,101112.17
2019-05-14T06:22:04.070Z,101109.73
2019-05-14T06:24:34.093Z,101110.90
2019-05-14T06:27:05.439Z,101109.69
2019-05-14T06:29:38.309Z,101110.39
2019-05-14T06:32:10.005Z,101112.82
2019-05-14T06:34:41.562Z,101111.09
2019-05-14T06:37:13.125Z,101107.63
2019-05-14T06:39:44.691Z,101107.64
2019-05-14T06:42:16.311Z,101106.56
2019-05-14T06:44:49.252Z,101105.97
2019-05-14T06:47:20.896Z,101115.39
2019-05-14T06:49:52.317Z,101115.80
2019-05-14T06:52:24.526Z,101112.33
2019-05-14T06:54:58.135Z,101103.77
2019-05-14T06:57:29.060Z,101103.03
2019-05-14T07:00:01.598Z,101102.12
2019-05-14T07:02:33.100Z,101098.71
2019-05-14T07:05:08.335Z,101092.49
2019-05-14T07:07:40.727Z,101088.02
2019-05-14T07:10:12.664Z,101091.77
2019-05-14T07:12:44.156Z,101090.30
2019-05-14T07:15:18.173Z,101091.13
2019-05-14T07:17:49.040Z,101087.34
2019-05-14T07:20:21.558Z,101083.95
2019-05-14T07:22:53.021Z,101080.16
2019-05-14T07:25:25.393Z,101072.91
2019-05-14T07:27:58.301Z,101075.41
2019-05-14T07:30:29.795Z,101066.53
2019-05-14T07:33:02.733Z,101068.27
2019-05-14T07:35:34.228Z,101063.78
2019-05-14T07:38:05.658Z,101055.50
2019-05-14T07:40:38.797Z,101057.37
2019-05-14T07:43:10.235Z,101056.54
2019-05-14T07:45:41.824Z,101049.59
2019-05-14T07:48:13.241Z,101044.82
2019-05-14T07:50:48.248Z,101043.43
2019-05-14T07:53:18.041Z,101044.03
2019-05-14T07:55:51.013Z,101047.80
2019-05-14T07:58:22.394Z,101049.92
2019-05-14T08:00:54.867Z,101041.02
2019-05-14T08:03:28.381Z,101052.62
2019-05-14T08:05:59.456Z,101058.28
2019-05-14T08:08:30.916Z,101045.99
2019-05-14T08:11:02.476Z,101048.44
2019-05-14T08:13:33.909Z,101043.08
2019-05-14T08:16:05.385Z,101038.95
2019-05-14T08:18:39.304Z,101033.77
2019-05-14T08:21:10.371Z,101033.53
2019-05-14T08:23:41.692Z,101041.53
2019-05-14T08:26:13.167Z,101031.89
2019-05-14T08:28:44.543Z,101031.00
2019-05-14T08:31:18.439Z,101035.22
2019-05-14T08:33:49.344Z,101035.63
2019-05-14T08:36:20.810Z,101038.04
2019-05-14T08:38:52.180Z,101040.58
2019-05-14T08:41:23.689Z,101036.41
2019-05-14T08:43:55.641Z,101042.23
2019-05-14T08:46:28.298Z,101032.14
2019-05-14T08:49:00.041Z,101032.71
2019-05-14T08:51:31.564Z,101036.58
2019-05-14T08:54:02.953Z,101043.23
2019-05-14T08:56:34.380Z,101033.91
2019-05-14T08:59:05.785Z,101042.02
2019-05-14T09:01:38.795Z,101030.00
2019-05-14T09:04:10.628Z,101031.98
2019-05-14T09:06:42.838Z,101022.30
2019-05-14T09:09:14.411Z,101029.56
2019-05-14T09:11:47.449Z,101023.45
2019-05-14T09:14:19.022Z,101029.40
2019-05-14T09:16:51.279Z,101029.48
2019-05-14T09:19:22.747Z,101020.66
2019-05-14T09:21:54.244Z,101018.19
2019-05-14T09:24:25.667Z,101019.94
2019-05-14T09:26:59.297Z,101016.73
2019-05-14T09:29:31.207Z,101011.52
2019-05-14T09:32:02.690Z,101012.20
2019-05-14T09:34:34.207Z,101005.48
2019-05-14T09:37:08.400Z,101014.45
2019-05-14T09:39:38.838Z,101010.20
2019-05-14T09:42:10.370Z,101005.83
2019-05-14T09:44:41.866Z,101009.48
2019-05-14T09:47:13.439Z,101009.04
2019-05-14T09:49:44.875Z,101013.59
2019-05-14T09:52:18.686Z,101007.25
2019-05-14T09:54:50.898Z,101015.94
2019-05-14T09:57:22.406Z,101008.80
2019-05-14T09:59:53.828Z,101013.03
2019-05-14T10:02:25.306Z,101020.59
2019-05-14T10:04:59.477Z,101008.16
2019-05-14T10:07:29.947Z,101012.08
2019-05-14T10:10:01.415Z,101017.84
2019-05-14T10:12:39.494Z,101015.11
2019-05-14T10:15:08.812Z,101010.27
2019-05-14T10:17:40.497Z,101013.55
2019-05-14T10:20:12.258Z,101005.51
2019-05-14T10:22:43.757Z,101007.52
2019-05-14T10:25:15.312Z,101004.66
2019-05-14T10:27:48.510Z,101005.11
2019-05-14T10:30:20.272Z,101002.05
2019-05-14T10:32:51.739Z,100998.63
2019-05-14T10:35:23.284Z,101003.72
2019-05-14T10:37:54.919Z,101004.22
2019-05-14T10:40:29.077Z,100991.88
2019-05-14T10:42:59.467Z,100990.91
2019-05-14T10:45:30.954Z,100990.89
2019-05-14T10:48:02.458Z,100991.86
2019-05-14T10:50:40.606Z,100998.20
2019-05-14T10:53:09.217Z,100992.58
2019-05-14T10:55:40.773Z,100988.27
2019-05-14T10:58:12.264Z,101000.27
2019-05-14T11:00:43.777Z,101002.26
2019-05-14T11:03:15.185Z,100997.48
2019-05-14T11:05:48.145Z,100985.70
2019-05-14T11:08:19.843Z,100990.86
2019-05-14T11:10:51.192Z,100995.59
2019-05-14T11:13:22.632Z,100999.56
2019-05-14T11:15:54.015Z,100999.79
2019-05-14T11:18:25.496Z,100996.87
2019-05-14T11:21:18.210Z,100992.86
2019-05-14T11:23:30.832Z,100999.92
2019-05-14T11:26:02.346Z,100990.03
2019-05-14T11:28:33.800Z,100999.28
2019-05-14T11:31:05.234Z,100995.95
2019-05-14T11:33:38.816Z,100997.53
2019-05-14T11:36:09.993Z,100989.73
2019-05-14T11:38:41.436Z,100996.87
2019-05-14T11:41:14.218Z,100997.52
2019-05-14T11:43:48.949Z,100994.36
2019-05-14T11:46:33.434Z,100990.97
2019-05-14T11:48:54.539Z,100983.59
2019-05-14T11:51:56.201Z,100987.24
2019-05-14T11:53:59.099Z,100975.93
2019-05-14T11:56:30.496Z,100977.91
2019-05-14T11:59:02.037Z,100973.41
2019-05-14T12:01:33.591Z,100978.11
2019-05-14T12:04:05.171Z,100984.03
2019-05-14T12:06:39.150Z,100978.88
2019-05-14T12:09:12.108Z,100978.11
2019-05-14T12:11:43.837Z,100980.75
2019-05-14T12:14:15.217Z,100974.09
2019-05-14T12:16:49.191Z,100978.44
2019-05-14T12:19:19.771Z,100976.83
2019-05-14T12:22:06.192Z,100967.89
2019-05-14T12:24:24.243Z,100969.95
2019-05-14T12:26:58.607Z,100970.95
2019-05-14T12:29:29.390Z,100964.77
2019-05-14T12:32:00.821Z,100965.70
2019-05-14T12:34:32.348Z,100963.63
2019-05-14T12:37:03.804Z,100966.20
2019-05-14T12:39:35.239Z,100956.77
2019-05-14T12:42:10.015Z,100950.14
2019-05-14T12:44:40.913Z,100956.97
2019-05-14T12:47:12.589Z,100954.28
2019-05-14T12:49:48.122Z,100956.68
2019-05-14T12:52:25.467Z,100947.45
2019-05-14T12:54:52.137Z,100955.60
2019-05-14T12:57:23.486Z,100949.50
2019-05-14T12:59:54.883Z,100949.42
2019-05-14T13:02:26.225Z,100944.09
2019-05-14T13:05:00.170Z,100946.74
2019-05-14T13:07:30.718Z,100941.58
2019-05-14T13:10:04.601Z,100942.16
2019-05-14T13:12:38.782Z,100945.89
2019-05-14T13:15:11.179Z,100946.59
2019-05-14T13:17:42.530Z,100948.56
2019-05-14T13:20:15.323Z,100947.72
2019-05-14T13:22:49.863Z,100946.05
2019-05-14T13:25:21.147Z,100939.83
2019-05-14T13:27:52.579Z,100941.23
2019-05-14T13:30:24.062Z,100934.73
2019-05-14T13:32:55.516Z,100944.41
2019-05-14T13:35:29.110Z,100943.98
2019-05-14T13:37:59.967Z,100937.58
2019-05-14T13:40:31.477Z,100942.42
2019-05-14T13:43:02.886Z,100939.02
2019-05-14T13:45:34.321Z,100935.49
2019-05-14T13:48:08.485Z,100930.65
2019-05-14T13:50:40.552Z,100931.67
2019-05-14T13:53:12.976Z,100926.96
2019-05-14T13:55:47.845Z,100928.94
2019-05-14T13:58:20.920Z,100927.06
2019-05-14T14:00:52.061Z,100927.34
2019-05-14T14:03:23.881Z,100926.55
2019-05-14T14:05:55.465Z,100930.23
2019-05-14T14:08:29.211Z,100930.63
2019-05-14T14:11:02.536Z,100925.50
2019-05-14T14:13:33.098Z,100918.20
2019-05-14T14:16:04.607Z,100920.98
2019-05-14T14:18:35.978Z,100928.52
2019-05-14T14:21:09.069Z,100915.87
2019-05-14T14:23:40.518Z,100923.58
2019-05-14T14:26:12.084Z,100924.41
2019-05-14T14:28:43.533Z,100922.42
2019-05-14T14:31:15.098Z,100922.73
2019-05-14T14:33:48.656Z,100913.31
2019-05-14T14:36:20.262Z,100911.94
2019-05-14T14:38:51.785Z,100912.82
2019-05-14T14:41:23.279Z,100916.30
2019-05-14T14:43:55.365Z,100920.45
2019-05-14T14:46:28.718Z,100927.16
2019-05-14T14:49:02.657Z,100926.05
2019-05-14T14:51:40.857Z,100929.76
2019-05-14T14:54:14.477Z,100931.10
2019-05-14T14:56:41.920Z,100933.05
2019-05-14T14:59:13.394Z,100930.50
2019-05-14T15:01:44.862Z,100928.28
2019-05-14T15:04:19.292Z,100925.15
2019-05-14T15:06:51.407Z,100929.67
2019-05-14T15:09:23.029Z,100929.62
2019-05-14T15:11:54.441Z,100930.98
2019-05-14T15:14:29.499Z,100930.38
2019-05-14T15:16:58.956Z,100930.07
2019-05-14T15:19:30.286Z,100937.81
2019-05-14T15:22:01.696Z,100937.27
2019-05-14T15:24:33.137Z,100940.64
2019-05-14T15:27:08.922Z,100942.34
2019-05-14T15:29:38.721Z,100941.22
2019-05-14T15:32:10.887Z,100952.22
2019-05-14T15:34:42.336Z,100941.22
2019-05-14T15:37:13.813Z,100938.66
2019-05-14T15:39:45.303Z,100941.70
2019-05-14T15:42:19.319Z,100937.66
2019-05-14T15:44:55.697Z,100944.88
2019-05-14T15:47:24.229Z,100937.61
2019-05-14T15:49:55.618Z,100946.80
2019-05-14T15:52:29.006Z,100957.17
2019-05-14T15:55:02.986Z,100959.66
2019-05-14T15:57:34.558Z,100949.88
2019-05-14T16:00:08.635Z,100951.72
2019-05-14T16:02:41.786Z,100955.87
2019-05-14T16:05:13.378Z,100956.94
2019-05-14T16:07:44.906Z,100953.00
2019-05-14T16:10:16.316Z,100949.34
2019-05-14T16:12:49.630Z,100945.05
2019-05-14T16:15:21.153Z,100949.98
2019-05-14T16:18:05.647Z,100948.05
2019-05-14T16:20:25.998Z,100947.09
2019-05-14T16:22:58.937Z,100954.58
2019-05-14T16:25:30.580Z,100954.84
2019-05-14T16:28:01.994Z,100953.62
2019-05-14T16:30:33.416Z,100949.63
2019-05-14T16:33:04.915Z,100953.45
2019-05-14T16:35:36.378Z,100954.55
2019-05-14T16:38:08.342Z,100953.83
2019-05-14T16:40:40.664Z,100953.13
2019-05-14T16:43:13.233Z,100950.02
2019-05-14T16:45:45.106Z,100947.03
2019-05-14T16:48:18.280Z,100949.70
2019-05-14T16:50:50.527Z,100942.03
2019-05-14T16:53:22.179Z,100955.87
2019-05-14T16:55:54.587Z,100958.25
2019-05-14T16:58:28.640Z,100965.66
2019-05-14T17:00:59.186Z,100956.84
2019-05-14T17:03:30.644Z,100955.88
2019-05-14T17:06:01.987Z,100952.35
2019-05-14T17:08:33.476Z,100958.09
2019-05-14T17:11:04.882Z,100957.85
2019-05-14T17:13:38.182Z,100966.06
2019-05-14T17:16:09.495Z,100968.33
2019-05-14T17:18:40.983Z,100968.18
2019-05-14T17:21:12.445Z,100979.74
2019-05-14T17:23:43.852Z,100981.27
2019-05-14T17:26:15.355Z,100982.55
2019-05-14T17:28:48.929Z,100981.89
2019-05-14T17:31:20.017Z,100992.61
2019-05-14T17:33:51.501Z,100995.00
2019-05-14T17:36:22.975Z,100997.25
2019-05-14T17:38:54.413Z,100992.45
2019-05-14T17:41:25.804Z,100992.30
2019-05-14T17:43:58.569Z,100998.12
2019-05-14T17:46:30.109Z,100990.88
2019-05-14T17:49:01.932Z,100989.83
2019-05-14T17:51:33.426Z,100987.37
2019-05-14T17:54:04.896Z,100985.98
2019-05-14T17:56:36.390Z,100988.77
2019-05-14T17:59:08.584Z,100991.01
2019-05-14T18:01:40.141Z,100997.52
2019-05-14T18:04:11.619Z,100996.52
2019-05-14T18:06:43.057Z,100996.44
2019-05-14T18:09:15.989Z,101001.31
2019-05-14T18:11:49.060Z,101000.34
2019-05-14T18:14:20.717Z,100998.53
2019-05-14T18:16:52.239Z,100999.52
2019-05-14T18:19:23.755Z,100998.54
2019-05-14T18:21:55.183Z,100996.66
2019-05-14T18:24:28.526Z,100999.08
2019-05-14T18:26:59.879Z,100999.53
2019-05-14T18:29:31.362Z,100996.87
2019-05-14T18:32:02.779Z,100996.57
2019-05-14T18:34:34.284Z,100993.09
2019-05-14T18:37:05.730Z,100991.06
2019-05-14T18:39:39.435Z,100985.33
2019-05-14T18:42:10.515Z,100996.04
2019-05-14T18:44:41.993Z,101002.13
2019-05-14T18:47:16.687Z,101001.05
2019-05-14T18:49:48.616Z,100998.94
2019-05-14T18:52:19.920Z,101002.28
2019-05-14T18:54:51.479Z,101006.36
2019-05-14T18:57:22.982Z,101005.95
2019-05-14T18:59:54.441Z,101006.03
2019-05-14T19:02:29.111Z,101006.03
2019-05-14T19:05:00.028Z,101011.20
2019-05-14T19:07:31.582Z,101013.81
2019-05-14T19:10:02.998Z,101006.02
2019-05-14T19:12:34.622Z,101005.34
2019-05-14T19:15:08.699Z,101007.05
2019-05-14T19:17:44.592Z,101004.44
2019-05-14T19:20:16.264Z,100996.43
2019-05-14T19:22:49.059Z,100991.45
2019-05-14T19:25:22.138Z,100994.40
2019-05-14T19:27:53.599Z,101001.08
2019-05-14T19:30:25.094Z,100995.60
2019-05-14T19:32:56.735Z,101001.94
2019-05-14T19:35:28.782Z,101001.38
2019-05-14T19:38:00.348Z,101004.38
2019-05-14T19:40:31.775Z,100998.17
2019-05-14T19:43:03.101Z,100998.86
2019-05-14T19:45:34.526Z,101000.08
2019-05-14T19:48:08.024Z,100996.48
2019-05-14T19:50:39.020Z,100999.16
2019-05-14T19:53:10.451Z,101000.55
2019-05-14T19:55:42.898Z,100999.69
2019-05-14T19:58:14.358Z,100996.36
2019-05-14T20:00:45.859Z,100992.27
2019-05-14T20:03:18.742Z,100994.98
2019-05-14T20:05:50.512Z,100995.34
2019-05-14T20:08:21.952Z,100990.78
2019-05-14T20:10:53.429Z,100994.94
2019-05-14T20:13:24.900Z,100993.25
2019-05-14T20:15:56.298Z,100995.73
2019-05-14T20:18:29.003Z,100993.25
2019-05-14T20:21:00.683Z,100994.48
2019-05-14T20:23:32.075Z,100993.19
2019-05-14T20:26:03.571Z,100994.88
2019-05-14T20:28:35.109Z,100998.96
2019-05-14T20:31:09.253Z,100988.87
2019-05-14T20:33:39.611Z,100996.94
2019-05-14T20:36:11.093Z,101001.22
2019-05-14T20:38:42.493Z,101005.08
2019-05-14T20:41:13.910Z,101005.98
2019-05-14T20:43:45.392Z,101000.22
2019-05-14T20:46:18.537Z,100997.51
2019-05-14T20:48:50.163Z,101005.48
2019-05-14T20:51:21.647Z,101000.06
2019-05-14T20:53:53.056Z,101005.50
2019-05-14T20:56:24.542Z,101006.52
2019-05-14T20:58:55.916Z,101003.23
2019-05-14T21:01:29.140Z,100997.97
2019-05-14T21:04:00.408Z,101000.27
2019-05-14T21:06:31.830Z,100990.91
2019-05-14T21:09:03.218Z,100994.16
2019-05-14T21:11:34.776Z,100991.78
2019-05-14T21:14:08.777Z,100994.86
2019-05-14T21:16:39.543Z,100998.16
2019-05-14T21:19:10.917Z,101001.70
2019-05-14T21:21:42.427Z,100999.98
2019-05-14T21:24:13.850Z,101003.84
2019-05-14T21:26:45.675Z,101005.98
2019-05-14T21:29:17.121Z,101002.13
2019-05-14T21:31:48.548Z,101003.51
2019-05-14T21:34:19.926Z,100999.58
2019-05-14T21:36:51.215Z,101004.30
2019-05-14T21:39:22.616Z,101002.28
2019-05-14T21:41:54.025Z,101007.63
2019-05-14T21:44:25.851Z,100999.95
2019-05-14T21:46:58.932Z,101002.39
2019-05-14T21:49:30.531Z,101000.86
2019-05-14T21:52:02.037Z,101001.39
2019-05-14T21:54:34.552Z,100995.52
2019-05-14T21:57:11.289Z,100996.30
2019-05-14T21:59:39.152Z,100990.70
2019-05-14T22:02:21.525Z,100985.95
2019-05-14T22:04:43.756Z,100978.17
2019-05-14T22:07:15.192Z,100978.17
2019-05-14T22:09:48.646Z,100985.13
2019-05-14T22:12:20.864Z,100974.14
2019-05-14T22:14:52.302Z,100974.59
2019-05-14T22:17:23.796Z,100978.44
2019-05-14T22:19:55.130Z,100978.48
2019-05-14T22:22:27.781Z,100975.52
2019-05-14T22:25:09.081Z,100972.23
2019-05-14T22:27:43.510Z,100979.78
2019-05-14T22:30:15.128Z,100975.00
2019-05-14T22:32:46.516Z,100981.58
2019-05-14T22:35:18.702Z,100983.85
2019-05-14T22:37:50.245Z,100984.08
2019-05-14T22:40:21.676Z,100984.44
2019-05-14T22:42:53.024Z,100985.48
2019-05-14T22:45:24.417Z,100973.41
2019-05-14T22:47:58.643Z,100979.69
2019-05-14T22:50:29.541Z,100983.61
2019-05-14T22:53:01.048Z,100985.74
2019-05-14T22:55:33.579Z,100981.48
2019-05-14T22:58:04.994Z,100982.67
2019-05-14T23:00:44.976Z,100977.44
2019-05-14T23:03:09.841Z,100981.70
2019-05-14T23:05:41.206Z,100977.44
2019-05-14T23:08:12.660Z,100976.42
2019-05-14T23:10:44.151Z,100982.59
2019-05-14T23:13:15.537Z,100978.33
2019-05-14T23:15:48.089Z,100978.75
2019-05-14T23:18:19.565Z,100982.37
2019-05-14T23:20:52.343Z,100983.53
2019-05-14T23:23:23.755Z,100981.92
2019-05-14T23:25:55.138Z,100986.59
2019-05-14T23:28:41.051Z,100982.23
2019-05-14T23:30:59.651Z,100983.64
2019-05-14T23:33:31.124Z,100983.22
2019-05-14T23:36:02.473Z,100979.84
2019-05-14T23:38:33.925Z,100977.33
2019-05-14T23:41:05.372Z,100977.55
2019-05-14T23:43:39.101Z,100976.41
2019-05-14T23:46:09.971Z,100970.77
2019-05-14T23:48:41.403Z,100980.45
2019-05-14T23:51:12.811Z,100974.85
2019-05-14T23:53:44.189Z,100971.36
2019-05-14T23:56:15.705Z,100973.78
2019-05-14T23:58:54.695Z,100969.77
